Time;durP1;ratioP1;P1;durP2;ratioP2;P2;SDS_P1;SDS_P2;PMS_P1;PMS_P2;Temp;Humidity;BMP_temperature;BMP_pressure;BME280_temperature;BME280_humidity;BME280_pressure;Samples;Min_cycle;Max_cycle;Signal;HPM_P1;HPM_P2
2023/04/18 12:20:00;;;;;;;24.77;6.22;;;;;;;;;;5161159;27;20453;-45
2023/04/18 12:48:27;;;;;;;13.73;4.72;;;;;;;20.18;47.29;102485.38;5062155;27;20722;-53
2023/04/18 13:38:52;;;;;;;23.85;13.45;;;;;;;12.37;59.17;102452.31;5114625;27;20416;-48
2023/04/18 13:41:17;;;;;;;18.27;10.73;;;;;;;12.36;59.57;102447.91;5060010;28;20040;-45
2023/04/18 13:43:43;;;;;;;17.40;12.25;;;;;;;12.36;59.34;102445.25;5049316;28;20041;-46
2023/04/18 13:46:08;;;;;;;17.50;10.77;;;;;;;12.57;59.28;102450.03;5045374;28;20021;-45
2023/04/18 13:48:33;;;;;;;19.83;11.20;;;;;;;12.51;59.82;102442.22;5045896;28;20116;-46
2023/04/18 13:50:59;;;;;;;19.98;12.38;;;;;;;12.45;59.63;102447.69;5062082;28;20123;-46
2023/04/18 13:53:24;;;;;;;16.08;11.65;;;;;;;12.46;59.69;102457.41;5049785;28;20032;-46
2023/04/18 13:55:50;;;;;;;23.13;13.15;;;;;;;12.54;59.10;102455.41;5045212;28;20349;-46
2023/04/18 13:58:15;;;;;;;17.88;11.45;;;;;;;12.57;59.41;102450.03;5036365;28;20036;-46
2023/04/18 14:00:41;;;;;;;20.95;11.15;;;;;;;12.56;59.23;102448.28;5042917;28;20120;-48
2023/04/18 14:03:06;;;;;;;40.17;18.65;;;;;;;12.73;59.08;102444.28;5036514;28;20538;-47
2023/04/18 14:05:32;;;;;;;21.45;12.82;;;;;;;12.66;59.02;102441.78;5045530;28;20033;-47
2023/04/18 14:08:03;;;;;;;19.33;10.55;;;;;;;12.77;58.76;102441.50;5043421;28;20554;-48
2023/04/18 14:10:32;;;;;;;17.10;11.50;;;;;;;12.89;58.77;102439.44;5045221;28;20022;-48
2023/04/18 14:12:57;;;;;;;21.45;12.43;;;;;;;12.83;58.29;102435.16;5042051;28;20048;-48
2023/04/18 14:15:23;;;;;;;20.40;12.77;;;;;;;13.00;58.27;102432.88;5022778;28;20021;-48
2023/04/18 14:17:48;;;;;;;33.83;20.42;;;;;;;12.90;58.73;102441.16;5042513;28;20061;-48
2023/04/18 14:20:23;;;;;;;20.95;12.55;;;;;;;12.81;58.25;102431.66;5037507;28;20037;-47
2023/04/18 14:22:48;;;;;;;25.73;14.20;;;;;;;12.81;58.70;102432.53;5053848;28;20021;-47
2023/04/18 14:25:15;;;;;;;16.45;12.52;;;;;;;12.77;58.57;102430.91;5040927;28;20050;-49
2023/04/18 14:27:42;;;;;;;16.70;12.50;;;;;;;12.76;58.39;102425.63;5037305;28;20036;-47
2023/04/18 14:30:08;;;;;;;22.98;13.45;;;;;;;12.90;58.53;102431.41;5039173;28;20029;-47
2023/04/18 14:32:34;;;;;;;29.65;19.42;;;;;;;12.86;58.47;102429.75;5038857;28;20018;-49
2023/04/18 14:35:03;;;;;;;24.35;15.82;;;;;;;12.86;58.24;102432.41;5039910;28;20159;-48
2023/04/18 14:37:28;;;;;;;27.02;14.73;;;;;;;12.89;58.24;102424.38;5046884;28;20037;-47
2023/04/18 14:39:54;;;;;;;18.98;13.20;;;;;;;12.94;57.85;102427.75;5043530;28;20078;-47
2023/04/18 14:42:19;;;;;;;18.77;13.38;;;;;;;13.24;57.64;102414.50;5040322;28;20029;-47
2023/04/18 14:44:45;;;;;;;26.08;18.23;;;;;;;13.23;57.16;102415.41;5036708;28;20588;-46
2023/04/18 14:47:10;;;;;;;21.33;12.13;;;;;;;13.21;57.24;102414.59;5040454;28;20049;-48
2023/04/18 14:49:36;;;;;;;21.17;12.80;;;;;;;13.12;56.92;102417.50;5027208;28;20036;-46
2023/04/18 14:52:01;;;;;;;23.08;12.60;;;;;;;13.12;57.06;102415.72;5023860;28;20033;-46
2023/04/18 14:54:27;;;;;;;18.27;11.35;;;;;;;13.26;56.81;102417.97;5033683;28;20029;-46
2023/04/18 14:56:52;;;;;;;16.98;11.52;;;;;;;13.25;56.10;102402.94;5025275;28;20017;-46
2023/04/18 14:59:18;;;;;;;27.90;16.17;;;;;;;13.27;56.71;102409.06;5027552;28;20033;-46
2023/04/18 15:01:43;;;;;;;21.30;10.82;;;;;;;13.34;56.21;102402.72;5025726;28;20098;-46
2023/04/18 15:04:08;;;;;;;16.30;11.60;;;;;;;13.38;56.12;102401.69;5031994;28;20038;-47
2023/04/18 15:06:35;;;;;;;38.40;19.77;;;;;;;13.36;55.78;102405.31;5025125;28;20045;-47
2023/04/18 15:09:00;;;;;;;19.73;11.05;;;;;;;13.33;55.30;102397.44;5030668;28;20116;-47
2023/04/18 15:11:26;;;;;;;15.13;10.88;;;;;;;13.16;55.72;102395.28;5031499;28;20151;-47
2023/04/18 15:13:51;;;;;;;19.75;12.02;;;;;;;13.25;55.61;102394.13;5035802;28;20102;-48
2023/04/18 15:16:17;;;;;;;18.25;10.07;;;;;;;13.21;55.93;102393.34;5044407;28;20362;-47
2023/04/18 15:18:43;;;;;;;16.85;10.43;;;;;;;13.22;55.72;102389.75;5040892;28;20527;-47
2023/04/18 15:21:09;;;;;;;13.80;10.23;;;;;;;13.21;55.93;102393.34;5039302;28;20052;-47
2023/04/18 15:23:34;;;;;;;13.63;10.20;;;;;;;13.19;56.14;102392.50;5036955;28;20336;-49
2023/04/18 15:26:00;;;;;;;15.25;9.65;;;;;;;13.11;56.55;102394.53;5041801;28;20056;-47
2023/04/18 15:28:25;;;;;;;13.98;10.00;;;;;;;12.97;56.75;102389.66;5039061;28;20116;-47
2023/04/18 15:30:51;;;;;;;17.85;8.90;;;;;;;13.04;57.26;102394.72;5040633;28;20541;-47
2023/04/18 15:33:17;;;;;;;16.17;10.00;;;;;;;12.98;57.42;102389.59;5030285;28;20025;-47
2023/04/18 15:35:44;;;;;;;18.05;11.77;;;;;;;12.99;57.47;102399.28;5044515;28;20430;-47
2023/04/18 15:38:10;;;;;;;18.48;11.77;;;;;;;12.89;57.85;102381.91;5030558;28;20053;-47
2023/04/18 15:40:36;;;;;;;16.58;10.07;;;;;;;12.95;57.84;102397.66;5030100;28;20068;-48
2023/04/18 15:43:01;;;;;;;12.60;9.05;;;;;;;13.03;58.00;102400.94;5030681;28;20082;-47
2023/04/18 15:45:27;;;;;;;18.23;10.88;;;;;;;12.96;58.09;102402.06;5029085;28;20029;-47
2023/04/18 15:47:52;;;;;;;13.45;8.80;;;;;;;12.97;57.80;102398.47;5030319;28;20338;-47
2023/04/18 15:50:18;;;;;;;13.60;9.27;;;;;;;12.92;56.67;102400.38;5030183;28;20037;-47
2023/04/18 15:52:43;;;;;;;18.63;11.63;;;;;;;12.87;57.03;102404.97;5032722;28;20125;-47
2023/04/18 15:55:10;;;;;;;12.05;8.73;;;;;;;12.89;56.94;102396.97;5032822;28;20340;-48
2023/04/18 15:57:36;;;;;;;12.07;8.15;;;;;;;12.95;56.85;102400.31;5038790;28;20055;-47
2023/04/18 16:00:04;;;;;;;19.33;9.93;;;;;;;12.84;56.88;102394.44;5037142;28;20030;-47
2023/04/18 16:02:29;;;;;;;18.52;8.93;;;;;;;12.88;57.20;102396.09;5036322;28;20025;-47
2023/04/18 16:04:55;;;;;;;15.70;8.57;;;;;;;12.83;56.90;102405.94;5039748;28;20051;-48
2023/04/18 16:07:20;;;;;;;10.05;7.68;;;;;;;12.85;56.96;102402.34;5040491;28;20028;-46
2023/04/18 16:09:46;;;;;;;17.95;8.52;;;;;;;12.82;56.92;102396.28;5040877;28;20029;-47
2023/04/18 16:12:11;;;;;;;14.95;8.00;;;;;;;12.81;56.78;102394.53;5038336;28;20029;-47
2023/04/18 16:14:37;;;;;;;13.73;7.97;;;;;;;12.76;56.31;102404.41;5031595;28;20048;-46
2023/04/18 16:17:03;;;;;;;10.68;7.20;;;;;;;12.73;56.75;102401.84;5024586;28;20022;-48
2023/04/18 16:19:28;;;;;;;16.60;8.65;;;;;;;12.64;56.89;102401.19;5029372;28;20496;-47
2023/04/18 16:21:53;;;;;;;8.60;6.35;;;;;;;12.71;56.41;102401.00;5027799;28;20037;-47
2023/04/18 16:24:19;;;;;;;12.25;8.85;;;;;;;12.67;55.87;102395.78;5036599;28;20032;-48
2023/04/18 16:26:44;;;;;;;10.63;6.75;;;;;;;12.76;55.78;102399.09;5032145;28;20132;-48
2023/04/18 16:29:10;;;;;;;9.52;6.70;;;;;;;12.71;55.75;102393.06;5037003;28;20033;-47
2023/04/18 16:31:35;;;;;;;14.95;6.57;;;;;;;12.67;55.94;102395.78;5040405;28;20052;-47
2023/04/18 16:34:02;;;;;;;19.35;10.88;;;;;;;12.63;54.84;102391.47;5025517;28;20075;-47
2023/04/18 16:36:27;;;;;;;20.52;11.50;;;;;;;12.61;54.64;102392.44;5028172;28;20036;-48
2023/04/18 16:38:52;;;;;;;8.05;5.47;;;;;;;12.59;54.06;102394.28;5031466;28;20041;-47
2023/04/18 16:41:18;;;;;;;7.95;5.75;;;;;;;12.59;54.79;102395.13;5029549;28;20030;-48
2023/04/18 16:43:43;;;;;;;8.43;5.20;;;;;;;12.54;54.50;102386.44;5032191;28;20025;-48
2023/04/18 16:46:10;;;;;;;9.45;6.07;;;;;;;12.54;54.18;102394.41;5029195;28;20345;-47
2023/04/18 16:48:37;;;;;;;30.92;16.30;;;;;;;12.56;54.40;102392.56;5033214;28;20025;-47
2023/04/18 16:51:03;;;;;;;13.13;7.68;;;;;;;12.56;53.15;102392.56;5043440;28;20262;-47
2023/04/18 16:53:28;;;;;;;9.93;5.20;;;;;;;12.51;53.70;102391.84;5029904;28;21035;-48
2023/04/18 16:55:54;;;;;;;9.93;5.22;;;;;;;12.44;53.72;102396.44;5037081;28;20032;-48
2023/04/18 16:58:21;;;;;;;11.57;6.72;;;;;;;12.47;52.96;102398.13;5027035;28;20071;-49
2023/04/18 17:00:47;;;;;;;8.52;4.30;;;;;;;12.38;53.53;102395.75;5027273;28;20128;-47
2023/04/18 17:03:13;;;;;;;20.05;10.18;;;;;;;12.40;53.07;102393.91;5025451;28;20431;-48
2023/04/18 17:05:38;;;;;;;14.43;6.78;;;;;;;12.40;53.30;102396.56;5031132;28;20036;-48
2023/04/18 17:08:05;;;;;;;14.57;7.13;;;;;;;12.35;52.75;102401.13;5027334;28;20022;-46
2023/04/18 17:10:31;;;;;;;13.82;7.25;;;;;;;12.36;53.08;102402.84;5025511;28;20033;-49
2023/04/18 17:12:57;;;;;;;10.18;5.05;;;;;;;12.32;53.88;102404.72;5026679;28;20040;-48
2023/04/18 17:15:22;;;;;;;7.45;4.00;;;;;;;12.19;54.14;102404.16;5027125;28;20030;-46
2023/04/18 17:17:49;;;;;;;8.68;4.53;;;;;;;12.20;53.25;102403.25;5022239;28;20037;-47
2023/04/18 17:20:16;;;;;;;4.60;3.45;;;;;;;12.13;52.97;102414.94;5040167;28;20084;-46
2023/04/18 17:22:42;;;;;;;10.85;5.28;;;;;;;12.14;52.25;102414.00;5025599;28;20059;-46
2023/04/18 17:25:08;;;;;;;7.95;4.88;;;;;;;12.17;50.97;102399.81;5031831;28;20093;-47
2023/04/18 17:27:33;;;;;;;9.23;4.07;;;;;;;12.13;51.83;102412.28;5032770;28;20074;-48
2023/04/18 17:29:59;;;;;;;11.63;5.03;;;;;;;12.08;52.24;102408.88;5024326;28;20044;-47
2023/04/18 17:32:24;;;;;;;5.97;3.63;;;;;;;11.97;52.60;102411.81;5024775;28;20033;-48
2023/04/18 17:34:50;;;;;;;9.32;5.00;;;;;;;12.00;51.18;102410.84;5026636;28;20082;-47
2023/04/18 17:37:16;;;;;;;9.93;4.57;;;;;;;11.99;51.27;102414.41;5022461;28;20086;-47
2023/04/18 17:39:42;;;;;;;9.10;4.95;;;;;;;11.94;51.16;102417.19;5027925;28;20123;-47
2023/04/18 17:42:08;;;;;;;5.35;3.75;;;;;;;11.89;51.25;102422.56;5019418;28;20068;-47
2023/04/18 17:44:33;;;;;;;4.65;2.90;;;;;;;11.84;51.47;102421.81;5019909;28;20104;-48
2023/04/18 17:46:59;;;;;;;4.93;3.40;;;;;;;11.84;51.35;102427.09;5025520;28;20041;-47
2023/04/18 17:49:29;;;;;;;5.32;3.15;;;;;;;11.77;52.48;102414.91;5028216;28;20049;-47
2023/04/18 17:51:54;;;;;;;5.70;3.47;;;;;;;11.72;52.47;102427.38;5027246;28;20033;-46
2023/04/18 17:54:20;;;;;;;5.88;3.67;;;;;;;11.72;52.79;102427.38;5022228;28;20068;-46
2023/04/18 17:56:46;;;;;;;6.07;3.95;;;;;;;11.56;54.05;102433.06;5024272;28;20037;-46
2023/04/18 17:59:11;;;;;;;6.22;3.67;;;;;;;11.44;54.29;102435.09;5025671;28;20132;-48
2023/04/18 18:01:38;;;;;;;6.85;3.53;;;;;;;11.37;54.76;102435.22;5022229;28;20033;-47
2023/04/18 18:04:03;;;;;;;8.57;4.55;;;;;;;11.37;54.51;102429.94;5022685;28;20029;-47
2023/04/18 18:06:29;;;;;;;8.73;4.65;;;;;;;11.34;54.46;102429.13;5024994;28;20088;-47
2023/04/18 18:08:54;;;;;;;5.40;3.97;;;;;;;11.27;54.91;102435.47;5022625;28;20040;-48
2023/04/18 18:11:20;;;;;;;6.65;4.07;;;;;;;11.23;55.26;102432.03;5026016;28;20029;-47
2023/04/18 18:13:45;;;;;;;9.02;3.95;;;;;;;11.19;55.26;102444.44;5030528;28;20044;-47
2023/04/18 18:16:11;;;;;;;8.60;4.15;;;;;;;11.07;56.21;102446.50;5025356;28;20026;-47
2023/04/18 18:18:37;;;;;;;9.07;4.15;;;;;;;10.93;57.27;102446.78;5026462;28;20128;-47
2023/04/18 18:21:03;;;;;;;10.10;5.00;;;;;;;10.92;57.32;102442.38;5028214;28;20025;-48
2023/04/18 18:23:28;;;;;;;18.65;9.60;;;;;;;10.83;57.79;102449.59;5025941;28;20342;-48
2023/04/18 18:25:54;;;;;;;53.88;24.00;;;;;;;10.78;57.46;102453.22;5022482;28;20556;-47
2023/04/18 18:28:19;;;;;;;8.55;5.10;;;;;;;10.76;58.37;102458.56;5031441;28;20021;-47
2023/04/18 18:30:45;;;;;;;7.80;3.95;;;;;;;10.69;58.24;102467.53;5037922;28;20315;-46
2023/04/18 18:33:10;;;;;;;8.00;4.93;;;;;;;10.63;59.25;102464.97;5034467;28;20022;-46
2023/04/18 18:35:36;;;;;;;8.57;4.38;;;;;;;10.53;60.10;102474.00;5034111;28;20026;-48
2023/04/18 18:38:01;;;;;;;7.65;4.57;;;;;;;10.37;61.22;102476.03;5033861;28;20053;-47
2023/04/18 18:40:26;;;;;;;12.60;4.45;;;;;;;10.39;60.33;102472.44;5034363;28;20040;-47
2023/04/18 18:42:53;;;;;;;10.27;4.43;;;;;;;10.33;60.69;102474.31;5036519;28;20037;-47
2023/04/18 18:45:20;;;;;;;9.73;5.38;;;;;;;10.26;60.74;102477.03;5040954;28;20037;-49
2023/04/18 18:47:46;;;;;;;9.05;5.50;;;;;;;10.24;59.85;102467.41;5036342;28;20124;-48
2023/04/18 18:50:11;;;;;;;12.43;5.53;;;;;;;10.18;59.60;102472.78;5039255;28;20061;-46
2023/04/18 18:52:39;;;;;;;10.95;5.20;;;;;;;10.15;59.71;102478.09;5028796;28;20069;-47
2023/04/18 18:55:06;;;;;;;10.57;5.65;;;;;;;10.11;60.02;102478.16;5040373;28;20485;-47
2023/04/18 18:57:33;;;;;;;7.57;4.55;;;;;;;10.07;60.13;102483.53;5026899;28;20101;-46
2023/04/18 18:59:58;;;;;;;8.82;4.90;;;;;;;9.93;60.39;102474.03;5036813;28;20887;-46
2023/04/18 19:02:24;;;;;;;9.13;4.70;;;;;;;9.88;59.65;102480.31;5028311;28;20026;-47
2023/04/18 19:04:49;;;;;;;14.00;5.32;;;;;;;9.84;59.65;102483.88;5032606;28;20112;-47
2023/04/18 19:07:15;;;;;;;8.02;5.18;;;;;;;9.81;58.86;102491.84;5029453;28;20060;-47
2023/04/18 19:09:40;;;;;;;9.50;4.40;;;;;;;9.72;59.21;102491.06;5032886;28;20026;-47
2023/04/18 19:12:06;;;;;;;9.95;4.50;;;;;;;9.65;58.87;102489.44;5032388;28;20423;-47
2023/04/18 19:14:31;;;;;;;11.52;5.05;;;;;;;9.62;59.17;102488.59;5028206;28;20036;-47
2023/04/18 19:16:57;;;;;;;8.98;5.22;;;;;;;9.61;58.29;102492.13;5031733;28;20025;-46
2023/04/18 19:19:23;;;;;;;7.07;5.00;;;;;;;9.59;58.15;102499.19;5035415;28;20104;-48
2023/04/18 19:21:49;;;;;;;8.02;4.63;;;;;;;9.57;57.60;102488.66;5032217;28;20052;-48
2023/04/18 19:24:14;;;;;;;9.63;4.75;;;;;;;9.49;57.28;102493.16;5030746;28;20386;-48
2023/04/18 19:26:40;;;;;;;6.55;5.10;;;;;;;9.44;57.54;102492.38;5026312;28;20041;-47
2023/04/18 19:29:06;;;;;;;9.57;4.20;;;;;;;9.35;57.74;102486.31;5028136;28;20022;-47
2023/04/18 19:31:33;;;;;;;12.63;5.03;;;;;;;9.32;58.36;102491.63;5032912;28;20460;-46
2023/04/18 19:33:58;;;;;;;8.45;4.53;;;;;;;9.32;57.85;102486.34;5030687;28;20184;-48
2023/04/18 19:36:25;;;;;;;8.48;5.07;;;;;;;9.28;57.93;102489.91;5021149;28;20033;-48
2023/04/18 19:38:50;;;;;;;6.30;4.53;;;;;;;9.24;57.43;102485.56;5028775;28;20038;-47
2023/04/18 19:41:16;;;;;;;6.90;4.75;;;;;;;9.21;57.50;102493.53;5029181;28;20043;-47
2023/04/18 19:43:41;;;;;;;9.18;4.60;;;;;;;9.14;57.25;102481.31;5030263;28;20108;-47
2023/04/18 19:46:07;;;;;;;8.80;4.40;;;;;;;9.12;56.94;102485.72;5028368;28;20033;-47
2023/04/18 19:48:33;;;;;;;7.53;4.43;;;;;;;9.08;57.33;102491.94;5037405;28;20075;-47
2023/04/18 19:50:58;;;;;;;6.65;4.15;;;;;;;9.01;57.26;102488.50;5025654;28;20103;-47
2023/04/18 19:53:24;;;;;;;13.82;5.13;;;;;;;8.95;56.88;102492.06;5042742;28;20025;-47
2023/04/18 19:55:49;;;;;;;7.13;5.00;;;;;;;8.91;57.37;102500.91;5034357;28;20354;-48
2023/04/18 19:58:38;;;;;;;8.63;4.20;;;;;;;8.84;57.76;102498.34;5026709;28;20350;-47
2023/04/18 20:01:04;;;;;;;7.60;4.35;;;;;;;8.80;57.96;102508.91;5031889;28;20025;-47
2023/04/18 20:03:31;;;;;;;6.40;4.35;;;;;;;8.69;58.02;102505.50;5035426;28;20036;-49
2023/04/18 20:05:57;;;;;;;9.00;5.10;;;;;;;8.60;58.49;102501.22;5029522;28;20021;-48
2023/04/18 20:08:22;;;;;;;8.25;4.45;;;;;;;8.52;58.76;102502.19;5034654;28;20037;-46
2023/04/18 20:10:48;;;;;;;9.80;4.43;;;;;;;8.45;59.21;102503.97;5033819;28;20049;-46
2023/04/18 20:13:13;;;;;;;7.45;4.55;;;;;;;8.35;58.57;102504.91;5029126;28;20420;-46
2023/04/18 20:15:39;;;;;;;6.55;4.45;;;;;;;8.28;59.06;102499.69;5039914;28;20029;-46
2023/04/18 20:18:05;;;;;;;9.45;4.63;;;;;;;8.25;59.57;102505.00;5028649;28;20565;-48
2023/04/18 20:20:30;;;;;;;7.15;4.60;;;;;;;8.20;59.55;102512.03;5018797;28;20101;-47
2023/04/18 20:22:56;;;;;;;9.38;4.90;;;;;;;8.12;59.83;102513.00;5025602;28;20098;-48
2023/04/18 20:25:21;;;;;;;7.97;4.90;;;;;;;8.04;60.44;102508.69;5033542;28;20108;-48
2023/04/18 20:27:47;;;;;;;9.52;5.38;;;;;;;7.97;60.35;102508.72;5032647;28;20437;-47
2023/04/18 20:30:12;;;;;;;11.43;5.40;;;;;;;7.97;60.68;102500.81;5020346;28;20060;-48
2023/04/18 20:32:38;;;;;;;9.82;5.10;;;;;;;7.89;61.41;102507.03;5028644;28;20041;-48
2023/04/18 20:35:04;;;;;;;10.95;5.57;;;;;;;7.78;61.01;102500.94;5031521;28;20037;-48
2023/04/18 20:37:29;;;;;;;11.32;5.53;;;;;;;7.72;61.50;102493.06;5025750;28;20177;-48
2023/04/18 20:39:55;;;;;;;13.00;5.65;;;;;;;7.67;62.33;102505.41;5030464;28;20479;-47
2023/04/18 20:42:21;;;;;;;10.63;5.97;;;;;;;7.63;61.95;102498.38;5028263;28;20062;-49
2023/04/18 20:44:47;;;;;;;8.02;4.85;;;;;;;7.54;62.73;102500.19;5026481;28;20071;-47
2023/04/18 20:47:13;;;;;;;15.02;5.65;;;;;;;7.48;63.09;102494.94;5030282;28;20029;-47
2023/04/18 20:49:38;;;;;;;10.07;5.25;;;;;;;7.46;62.79;102496.72;5031090;28;20037;-46
2023/04/18 20:52:07;;;;;;;12.50;6.38;;;;;;;7.38;64.01;102503.78;5033615;28;20127;-48
2023/04/18 20:54:33;;;;;;;9.32;5.63;;;;;;;7.29;64.04;102498.53;5031782;28;20025;-47
2023/04/18 20:56:58;;;;;;;10.18;6.25;;;;;;;7.22;63.95;102502.09;5032237;28;20408;-48
2023/04/18 20:59:23;;;;;;;8.48;5.35;;;;;;;7.17;64.60;102500.34;5024903;28;20053;-47
2023/04/18 21:01:49;;;;;;;9.88;5.22;;;;;;;7.08;65.35;102505.63;5032917;28;20025;-47
2023/04/18 21:04:14;;;;;;;19.02;5.50;;;;;;;6.98;65.42;102504.78;5031096;28;20064;-47
2023/04/18 21:06:40;;;;;;;10.88;6.72;;;;;;;6.95;66.08;102503.94;5023715;28;20299;-47
2023/04/18 21:09:06;;;;;;;13.55;6.80;;;;;;;6.97;65.17;102502.16;5032570;28;20022;-47
2023/04/18 21:11:31;;;;;;;10.77;5.68;;;;;;;6.91;65.88;102507.44;5032131;28;20045;-47
2023/04/18 21:13:57;;;;;;;10.95;6.10;;;;;;;6.86;65.53;102503.94;5030364;28;20485;-47
2023/04/18 21:16:22;;;;;;;13.45;6.25;;;;;;;6.74;66.86;102500.47;5020285;28;20060;-48
2023/04/18 21:18:48;;;;;;;11.55;6.38;;;;;;;6.80;66.26;102504.84;5032694;28;20041;-48
2023/04/18 21:21:13;;;;;;;11.90;6.15;;;;;;;6.78;66.44;102506.56;5021074;28;20617;-47
2023/04/18 21:23:43;;;;;;;10.48;6.10;;;;;;;6.70;67.05;102514.50;5030449;28;20049;-48
2023/04/18 21:26:11;;;;;;;8.82;5.47;;;;;;;6.70;67.31;102506.63;5032143;28;20116;-47
2023/04/18 21:28:59;;;;;;;9.82;6.60;;;;;;;6.73;67.22;102503.94;5030040;28;20064;-47
2023/04/18 21:31:25;;;;;;;10.38;6.25;;;;;;;6.69;67.16;102499.59;5031271;28;20458;-47
2023/04/18 21:33:55;;;;;;;10.57;6.13;;;;;;;6.79;67.22;102498.69;5032686;28;20025;-47
2023/04/18 21:36:21;;;;;;;13.43;6.35;;;;;;;6.74;67.75;102505.72;5030981;28;20026;-46
2023/04/18 21:38:47;;;;;;;14.80;6.85;;;;;;;6.66;67.78;102502.22;5023294;28;20127;-46
2023/04/18 21:41:14;;;;;;;13.57;6.30;;;;;;;6.72;68.12;102506.59;5030755;28;20526;-47
2023/04/18 21:43:39;;;;;;;11.15;6.63;;;;;;;6.65;68.09;102504.84;5032372;28;20035;-46
2023/04/18 21:46:05;;;;;;;12.73;6.18;;;;;;;6.65;68.01;102500.47;5031202;28;20108;-47
2023/04/18 21:48:30;;;;;;;10.52;6.88;;;;;;;6.57;68.92;102504.84;5024790;28;20427;-46
2023/04/18 21:50:56;;;;;;;13.30;7.53;;;;;;;6.51;69.47;102512.75;5031460;28;20041;-47
2023/04/18 21:53:21;;;;;;;12.88;7.47;;;;;;;6.39;69.36;102509.25;5032096;28;20037;-46
2023/04/18 21:55:46;;;;;;;16.80;7.18;;;;;;;6.39;69.53;102504.00;5031884;28;20041;-47
2023/04/18 21:58:12;;;;;;;15.38;7.82;;;;;;;6.34;70.20;102503.13;5022953;28;20035;-46
2023/04/18 22:00:38;;;;;;;11.18;7.20;;;;;;;6.28;70.33;102503.13;5012808;28;20018;-46
2023/04/18 22:03:03;;;;;;;14.05;7.43;;;;;;;6.19;70.72;102505.75;5033352;28;20022;-46
2023/04/18 22:05:29;;;;;;;17.10;7.97;;;;;;;6.16;71.38;102500.47;5032490;28;20041;-48
2023/04/18 22:07:55;;;;;;;11.18;7.03;;;;;;;6.12;71.44;102498.75;5028602;28;20022;-47
2023/04/18 22:10:21;;;;;;;14.50;8.05;;;;;;;6.03;71.72;102500.50;5025095;28;20446;-46
2023/04/18 22:12:50;;;;;;;14.02;7.75;;;;;;;5.97;71.87;102499.59;5040616;28;20105;-46
2023/04/18 22:15:16;;;;;;;13.32;7.80;;;;;;;5.96;72.07;102497.81;5032161;28;20030;-46
2023/04/18 22:17:42;;;;;;;15.85;8.10;;;;;;;5.88;71.57;102496.06;5032000;28;20037;-46
2023/04/18 22:20:08;;;;;;;14.13;8.68;;;;;;;5.80;72.33;102497.81;5048986;28;20136;-48
2023/04/18 22:22:33;;;;;;;14.60;7.13;;;;;;;5.72;72.04;102501.25;5029625;28;20112;-48
2023/04/18 22:24:58;;;;;;;21.83;8.27;;;;;;;5.68;71.91;102493.38;5020368;28;20421;-46
2023/04/18 22:27:24;;;;;;;17.85;7.75;;;;;;;5.63;72.64;102489.88;5047783;28;20029;-48
2023/04/18 22:29:49;;;;;;;15.18;7.32;;;;;;;5.64;71.87;102486.38;5043791;28;20045;-47
2023/04/18 22:32:15;;;;;;;12.25;7.28;;;;;;;5.57;72.41;102487.22;5028303;28;20034;-46
2023/04/18 22:34:40;;;;;;;17.98;8.82;;;;;;;5.53;71.70;102477.59;5021497;28;20478;-46
2023/04/18 22:37:06;;;;;;;15.45;7.50;;;;;;;5.49;71.89;102481.06;5033303;28;20041;-47
2023/04/18 22:39:31;;;;;;;12.40;7.60;;;;;;;5.42;71.99;102479.31;5023945;28;20456;-45
2023/04/18 22:41:56;;;;;;;12.75;7.75;;;;;;;5.33;72.22;102474.94;5032943;28;20025;-48
2023/04/18 22:44:22;;;;;;;15.05;8.38;;;;;;;5.36;72.32;102481.91;5029387;28;20037;-47
2023/04/18 22:46:48;;;;;;;13.20;7.65;;;;;;;5.31;71.93;102487.13;5028845;28;20175;-47
2023/04/18 22:49:13;;;;;;;13.05;7.43;;;;;;;5.23;71.44;102474.00;5026173;28;20187;-47
2023/04/18 22:51:39;;;;;;;19.38;8.95;;;;;;;5.20;71.13;102474.00;5034268;28;20474;-47
2023/04/18 22:54:04;;;;;;;15.32;8.20;;;;;;;5.11;71.00;102476.56;5030394;28;20040;-46
2023/04/18 22:56:30;;;;;;;22.63;6.88;;;;;;;5.20;68.80;102458.25;5020485;28;20028;-47
2023/04/18 22:58:55;;;;;;;14.30;6.68;;;;;;;5.22;69.13;102467.00;5050415;28;20135;-47
2023/04/18 23:01:20;;;;;;;15.18;6.97;;;;;;;5.17;68.73;102462.63;5050241;28;20017;-47
2023/04/18 23:03:46;;;;;;;13.27;7.05;;;;;;;5.07;70.02;102461.72;5027613;28;20045;-47
2023/04/18 23:06:11;;;;;;;15.70;6.90;;;;;;;5.02;70.31;102458.16;5023194;28;20041;-47
2023/04/18 23:08:37;;;;;;;14.75;6.90;;;;;;;4.94;70.90;102461.63;5034903;28;20029;-47
2023/04/18 23:11:02;;;;;;;13.63;7.05;;;;;;;4.84;70.92;102459.84;5032752;28;20075;-47
2023/04/18 23:13:27;;;;;;;14.73;6.00;;;;;;;4.84;70.28;102459.84;5030499;28;20032;-47
2023/04/18 23:15:53;;;;;;;10.20;6.53;;;;;;;4.80;70.13;102457.19;5023309;28;20122;-47
2023/04/18 23:18:18;;;;;;;13.60;6.32;;;;;;;4.76;70.36;102461.53;5033717;28;20037;-47
2023/04/18 23:20:43;;;;;;;15.38;7.32;;;;;;;4.75;70.02;102465.03;5028284;28;20072;-47
2023/04/18 23:23:09;;;;;;;9.75;6.03;;;;;;;4.66;69.81;102464.94;5021957;28;20037;-47
2023/04/18 23:25:34;;;;;;;14.10;6.22;;;;;;;4.64;69.83;102466.69;5023564;28;20032;-47
2023/04/18 23:27:59;;;;;;;19.33;6.20;;;;;;;4.64;69.42;102461.47;5034575;28;20041;-46
2023/04/18 23:30:25;;;;;;;12.77;7.43;;;;;;;4.64;68.81;102464.06;5039650;28;20040;-48
2023/04/18 23:32:50;;;;;;;9.48;5.60;;;;;;;4.62;69.11;102461.44;5039491;28;20033;-47
2023/04/18 23:35:16;;;;;;;11.10;5.53;;;;;;;4.57;68.28;102450.94;5033252;28;20068;-46
2023/04/18 23:37:42;;;;;;;8.30;4.93;;;;;;;4.63;68.29;102454.47;5031704;28;20049;-48
2023/04/18 23:40:08;;;;;;;10.60;5.00;;;;;;;4.71;67.50;102455.41;5033898;28;20068;-47
2023/04/18 23:42:34;;;;;;;10.52;5.70;;;;;;;4.75;67.38;102449.31;5032901;28;20047;-47
2023/04/18 23:45:00;;;;;;;10.57;5.13;;;;;;;4.86;66.78;102447.63;5033353;28;20041;-45
2023/04/18 23:47:25;;;;;;;8.27;5.45;;;;;;;4.92;66.58;102450.28;5032751;28;20040;-46
2023/04/18 23:49:51;;;;;;;13.75;5.60;;;;;;;4.99;66.20;102442.44;5033841;28;20382;-45
2023/04/18 23:52:16;;;;;;;10.32;4.72;;;;;;;5.03;66.11;102445.06;5033881;28;20560;-45
2023/04/18 23:54:41;;;;;;;11.73;4.47;;;;;;;5.06;65.89;102438.97;5029670;28;20157;-47
2023/04/18 23:57:07;;;;;;;10.13;5.20;;;;;;;5.09;65.06;102441.63;5024187;28;20434;-48
2023/04/18 23:59:32;;;;;;;12.90;5.13;;;;;;;5.14;64.83;102442.50;5035360;28;20034;-47
